Captain Ed — WDF6338 — position and weather

sailwx.info

Track history (hours):
 
Tides and Currents Weather Stations Pressure Air Temp Water Temp Dewpoint Dewpoint Depression Visibility Wind Speed Wind Dir Waves Ship Positions

Captain Ed

Owner: Norfolk Dredging Company, Chesapeake, VA. More information available from US FCC via Universal Licensing System and Coast Guard Vessel Documentation Center.

Last reported at 2014-Oct-17 15:30 UTC. Time now 2014-Oct-26 09:40 UTC.
Position N 36°48' W 076°17'.
Warning: this ship's position is 8 days out of date.

Length 22 m; draft 3 m.

Type: Tug. MMSI: 367473210.

Date/timePositionNaut miles runAvg speedWind from/ knotsBaromVisibWave heightAir tempDewpointWater temp
2014-Oct-17 15:30N 36°48' W 076°17'4 0.1
2014-Oct-15 21:26N 36°45' W 076°18'2 0.7
2014-Oct-15 18:18N 36°47' W 076°18'4 4.4
2014-Oct-15 17:20N 36°51' W 076°18'  
2014-Oct-08 13:12N 36°50' W 076°17'2 2.8
2014-Oct-08 12:22N 36°52' W 076°19'1 1.1
2014-Oct-08 11:29N 36°52' W 076°20'1 1.4
2014-Oct-08 10:33N 36°51' W 076°19'0 0.0
2014-Oct-07 21:32N 36°51' W 076°19'6 4.4
2014-Oct-07 20:12N 36°57' W 076°20'7 4.3
2014-Oct-07 18:31N 37°02' W 076°14'  
Track history (hours):
 
Tides and Currents Weather Stations Pressure Air Temp Water Temp Dewpoint Dewpoint Depression Visibility Wind Speed Wind Dir Waves Ship Positions

Captain Ed

Owner: Norfolk Dredging Company, Chesapeake, VA. More information available from US FCC via Universal Licensing System and Coast Guard Vessel Documentation Center.

Last reported at 2014-Oct-17 15:30 UTC. Time now 2014-Oct-26 09:40 UTC.
Position N 36°48' W 076°17'.
Warning: this ship's position is 8 days out of date.

Length 22 m; draft 3 m.

Type: Tug. MMSI: 367473210.

Date/timePositionNaut miles runAvg speedWind from/ knotsBaromVisibWave heightAir tempDewpointWater temp
2014-Oct-17 15:30N 36°48' W 076°17'4 0.1
2014-Oct-15 21:26N 36°45' W 076°18'2 0.7
2014-Oct-15 18:18N 36°47' W 076°18'4 4.4
2014-Oct-15 17:20N 36°51' W 076°18'  
2014-Oct-08 13:12N 36°50' W 076°17'2 2.8
2014-Oct-08 12:22N 36°52' W 076°19'1 1.1
2014-Oct-08 11:29N 36°52' W 076°20'1 1.4
2014-Oct-08 10:33N 36°51' W 076°19'0 0.0
2014-Oct-07 21:32N 36°51' W 076°19'6 4.4
2014-Oct-07 20:12N 36°57' W 076°20'7 4.3
2014-Oct-07 18:31N 37°02' W 076°14'  

Dump ship's entire track history